createdAt,value
2023-04-25T00:02:10.528Z,6.28
2023-04-25T00:04:39.314Z,5.68
2023-04-25T00:07:09.105Z,6.03
2023-04-25T00:09:37.482Z,6.05
2023-04-25T00:12:06.152Z,6.35
2023-04-25T00:14:36.512Z,6.47
2023-04-25T00:17:05.457Z,6.90
2023-04-25T00:19:33.839Z,6.38
2023-04-25T00:22:02.031Z,7.43
2023-04-25T00:24:31.870Z,7.95
2023-04-25T00:26:59.996Z,8.55
2023-04-25T00:29:28.438Z,8.55
2023-04-25T00:31:56.597Z,7.85
2023-04-25T00:34:25.094Z,7.32
2023-04-25T00:36:53.222Z,7.93
2023-04-25T00:39:21.763Z,8.18
2023-04-25T00:41:54.351Z,8.55
2023-04-25T00:44:22.976Z,7.53
2023-04-25T00:46:51.407Z,7.50
2023-04-25T00:49:19.944Z,9.00
2023-04-25T00:51:48.120Z,8.77
2023-04-25T00:54:16.806Z,9.52
2023-04-25T00:56:46.290Z,9.05
2023-04-25T00:59:16.707Z,9.50
2023-04-25T01:01:45.432Z,9.93
2023-04-25T01:04:14.183Z,9.90
2023-04-25T01:06:42.794Z,9.23
2023-04-25T01:09:11.767Z,9.23
2023-04-25T01:11:41.242Z,9.65
2023-04-25T01:14:09.744Z,9.32
2023-04-25T01:16:39.761Z,9.65
2023-04-25T01:19:12.315Z,7.90
2023-04-25T01:21:42.178Z,9.40
2023-04-25T01:24:10.986Z,9.13
2023-04-25T01:26:40.836Z,9.77
2023-04-25T01:29:10.095Z,8.68
2023-04-25T01:31:38.701Z,9.43
2023-04-25T01:34:07.234Z,9.93
2023-04-25T01:36:36.126Z,8.90
2023-04-25T01:39:06.094Z,8.35
2023-04-25T01:41:35.624Z,8.50
2023-04-25T01:44:04.125Z,9.85
2023-04-25T01:46:32.580Z,8.45
2023-04-25T01:49:01.173Z,6.80
2023-04-25T01:51:29.416Z,7.03
2023-04-25T01:53:59.887Z,6.32
2023-04-25T01:59:01.859Z,6.20
2023-04-25T02:01:29.996Z,6.60
2023-04-25T02:03:58.639Z,6.38
2023-04-25T02:06:26.906Z,6.07
2023-04-25T02:08:55.371Z,5.80
2023-04-25T02:11:23.567Z,6.00
2023-04-25T02:13:53.454Z,5.88
2023-04-25T02:16:21.770Z,5.53
2023-04-25T02:18:50.319Z,5.43
2023-04-25T02:21:18.445Z,5.90
2023-04-25T02:23:50.120Z,5.50
2023-04-25T02:26:18.445Z,6.70
2023-04-25T02:28:46.865Z,7.47
2023-04-25T02:31:16.439Z,5.85
2023-04-25T02:33:45.134Z,5.72
2023-04-25T02:36:13.381Z,5.63
2023-04-25T02:38:41.838Z,5.00
2023-04-25T02:41:09.974Z,4.75
2023-04-25T02:43:38.373Z,4.55
2023-04-25T02:46:06.620Z,4.90
2023-04-25T02:48:36.470Z,5.90
2023-04-25T02:51:04.831Z,5.80
2023-04-25T02:53:33.599Z,5.63
2023-04-25T02:56:01.723Z,6.03
2023-04-25T02:58:30.183Z,5.25
2023-04-25T03:00:58.362Z,5.65
2023-04-25T03:03:27.054Z,5.35
2023-04-25T03:05:56.632Z,5.80
2023-04-25T03:08:26.262Z,5.22
2023-04-25T03:10:56.606Z,4.85
2023-04-25T03:13:28.425Z,5.05
2023-04-25T03:15:56.557Z,4.05
2023-04-25T03:18:25.069Z,4.20
2023-04-25T03:20:53.160Z,3.85
2023-04-25T03:23:23.083Z,3.95
2023-04-25T03:25:51.207Z,3.78
2023-04-25T03:28:19.858Z,3.92
2023-04-25T03:30:48.060Z,3.92
2023-04-25T03:33:16.539Z,4.00
2023-04-25T03:35:44.729Z,3.72
2023-04-25T03:38:13.249Z,3.70
2023-04-25T03:40:42.720Z,3.50
2023-04-25T03:43:11.305Z,4.65
2023-04-25T03:45:39.471Z,4.60
2023-04-25T03:48:08.108Z,4.57
2023-04-25T03:50:36.808Z,3.20
2023-04-25T03:53:05.317Z,3.60
2023-04-25T03:55:33.535Z,4.03
2023-04-25T03:58:03.417Z,4.38
2023-04-25T04:00:31.557Z,4.38
2023-04-25T04:03:00.320Z,4.05
2023-04-25T04:05:28.720Z,4.00
2023-04-25T04:07:57.303Z,4.38
2023-04-25T04:10:27.155Z,4.00
2023-04-25T04:12:55.564Z,4.45
2023-04-25T04:15:25.186Z,4.13
2023-04-25T04:17:53.709Z,3.78
2023-04-25T04:20:22.030Z,3.13
2023-04-25T04:22:50.551Z,3.53
2023-04-25T04:25:19.163Z,3.13
2023-04-25T04:27:48.382Z,3.03
2023-04-25T04:30:16.943Z,3.15
2023-04-25T04:32:48.374Z,3.40
2023-04-25T04:35:18.402Z,2.67
2023-04-25T04:37:47.424Z,2.92
2023-04-25T04:40:16.794Z,2.85
2023-04-25T04:42:46.414Z,3.03
2023-04-25T04:45:15.425Z,2.63
2023-04-25T04:47:44.081Z,2.83
2023-04-25T04:50:14.201Z,3.33
2023-04-25T04:52:42.770Z,3.58
2023-04-25T04:55:11.306Z,3.38
2023-04-25T04:57:40.597Z,3.10
2023-04-25T05:00:12.171Z,3.75
2023-04-25T05:02:44.564Z,4.00
2023-04-25T05:05:14.131Z,3.47
2023-04-25T05:07:42.712Z,3.28
2023-04-25T05:10:11.674Z,3.20
2023-04-25T05:12:40.141Z,3.45
2023-04-25T05:15:09.096Z,3.80
2023-04-25T05:17:37.796Z,4.30
2023-04-25T05:20:08.500Z,3.70
2023-04-25T05:22:38.489Z,3.30
2023-04-25T05:25:08.185Z,3.42
2023-04-25T05:27:36.807Z,2.88
2023-04-25T05:30:06.029Z,3.33
2023-04-25T05:32:34.425Z,3.80
2023-04-25T05:35:02.523Z,3.75
2023-04-25T05:37:32.161Z,3.28
2023-04-25T05:40:01.734Z,3.40
2023-04-25T05:42:30.200Z,3.08
2023-04-25T05:44:58.415Z,3.78
2023-04-25T05:47:26.944Z,3.13
2023-04-25T05:49:55.202Z,3.30
2023-04-25T05:52:23.795Z,3.33
2023-04-25T05:54:51.942Z,3.30
2023-04-25T05:57:24.423Z,3.20
2023-04-25T05:59:53.102Z,3.50
2023-04-25T06:02:22.750Z,2.97
2023-04-25T06:04:52.582Z,3.35
2023-04-25T06:07:22.045Z,3.08
2023-04-25T06:09:50.409Z,3.22
2023-04-25T06:12:18.991Z,3.30
2023-04-25T06:14:48.761Z,2.78
2023-04-25T06:17:17.248Z,4.15
2023-04-25T06:19:45.519Z,4.25
2023-04-25T06:22:14.269Z,3.92
2023-04-25T06:24:42.481Z,4.22
2023-04-25T06:27:10.946Z,3.10
2023-04-25T06:29:39.187Z,3.53
2023-04-25T06:32:09.276Z,5.72
2023-04-25T06:34:37.526Z,6.63
2023-04-25T06:37:06.293Z,4.50
2023-04-25T06:39:34.508Z,4.43
2023-04-25T06:42:03.148Z,4.07
2023-04-25T06:44:31.929Z,4.20
2023-04-25T06:47:00.464Z,4.38
2023-04-25T06:49:30.124Z,4.50
2023-04-25T06:51:58.658Z,4.28
2023-04-25T06:54:28.307Z,3.50
2023-04-25T06:56:56.984Z,4.03
2023-04-25T06:59:25.295Z,3.72
2023-04-25T07:01:53.692Z,3.42
2023-04-25T07:04:22.107Z,3.47
2023-04-25T07:06:52.074Z,3.08
2023-04-25T07:09:20.537Z,3.30
2023-04-25T07:11:48.959Z,6.22
2023-04-25T07:14:17.307Z,4.00
2023-04-25T07:16:45.888Z,4.18
2023-04-25T07:19:14.218Z,5.40
2023-04-25T07:21:42.668Z,4.18
2023-04-25T07:24:12.230Z,3.33
2023-04-25T07:26:40.816Z,4.15
2023-04-25T07:29:09.003Z,4.20
2023-04-25T07:31:37.991Z,4.07
2023-04-25T07:34:06.532Z,3.90
2023-04-25T07:36:35.129Z,3.83
2023-04-25T07:39:03.569Z,4.07
2023-04-25T07:41:33.596Z,3.70
2023-04-25T07:44:01.860Z,4.32
2023-04-25T07:46:30.508Z,4.65
2023-04-25T07:48:58.741Z,4.95
2023-04-25T07:51:27.292Z,5.35
2023-04-25T07:53:55.967Z,4.45
2023-04-25T07:56:24.627Z,4.72
2023-04-25T07:58:54.469Z,4.90
2023-04-25T08:01:23.204Z,3.92
2023-04-25T08:03:51.573Z,4.65
2023-04-25T08:06:20.558Z,4.28
2023-04-25T08:08:49.199Z,4.60
2023-04-25T08:11:17.846Z,3.22
2023-04-25T08:13:45.903Z,4.50
2023-04-25T08:16:16.004Z,3.15
2023-04-25T08:18:44.459Z,3.22
2023-04-25T08:21:13.507Z,4.25
2023-04-25T08:23:41.757Z,3.72
2023-04-25T08:26:10.198Z,3.53
2023-04-25T08:28:38.389Z,3.20
2023-04-25T08:31:07.260Z,3.05
2023-04-25T08:33:37.084Z,3.13
2023-04-25T08:36:06.833Z,2.97
2023-04-25T08:38:35.110Z,2.80
2023-04-25T08:41:03.680Z,8.50
2023-04-25T08:43:32.952Z,4.22
2023-04-25T08:46:02.210Z,2.72
2023-04-25T08:48:30.836Z,2.22
2023-04-25T08:51:01.000Z,3.45
2023-04-25T08:53:31.080Z,2.35
2023-04-25T08:56:02.617Z,2.80
2023-04-25T08:58:31.117Z,3.20
2023-04-25T09:00:59.576Z,3.42
2023-04-25T09:03:28.182Z,2.88
2023-04-25T09:05:57.578Z,2.80
2023-04-25T09:08:27.121Z,3.22
2023-04-25T09:10:55.837Z,3.05
2023-04-25T09:13:27.831Z,2.83
2023-04-25T09:15:57.633Z,2.92
2023-04-25T09:18:30.585Z,2.80
2023-04-25T09:21:13.090Z,3.38
2023-04-25T09:23:47.658Z,2.83
2023-04-25T09:26:18.123Z,3.30
2023-04-25T09:28:46.941Z,3.58
2023-04-25T09:31:24.522Z,3.72
2023-04-25T09:33:55.353Z,3.65
2023-04-25T09:36:28.985Z,3.65
2023-04-25T09:38:58.671Z,3.20
2023-04-25T09:41:27.711Z,3.03
2023-04-25T09:43:59.032Z,4.50
2023-04-25T09:46:27.659Z,4.03
2023-04-25T09:48:56.043Z,3.20
2023-04-25T09:51:28.346Z,3.53
2023-04-25T09:53:57.987Z,3.50
2023-04-25T09:56:27.254Z,3.00
2023-04-25T09:58:56.191Z,2.65
2023-04-25T10:01:25.813Z,2.88
2023-04-25T10:03:54.793Z,2.85
2023-04-25T10:06:25.037Z,2.10
2023-04-25T10:08:54.717Z,1.92
2023-04-25T10:11:26.268Z,2.78
2023-04-25T10:16:23.484Z,2.58
2023-04-25T10:18:52.843Z,2.30
2023-04-25T10:21:22.096Z,2.78
2023-04-25T10:23:51.182Z,3.00
2023-04-25T10:26:20.187Z,2.72
2023-04-25T10:28:59.910Z,2.65
2023-04-25T10:31:28.636Z,3.75
2023-04-25T10:33:59.472Z,2.90
2023-04-25T10:36:28.511Z,3.13
2023-04-25T10:38:58.942Z,3.67
2023-04-25T10:41:27.489Z,3.25
2023-04-25T10:44:03.489Z,3.53
2023-04-25T10:46:32.541Z,3.97
2023-04-25T10:49:02.024Z,3.58
2023-04-25T10:51:40.088Z,2.58
2023-04-25T10:54:21.131Z,3.55
2023-04-25T10:56:50.934Z,4.20
2023-04-25T10:59:22.569Z,3.42
2023-04-25T11:01:55.777Z,2.80
2023-04-25T11:04:27.352Z,2.80
2023-04-25T11:07:07.086Z,2.25
2023-04-25T11:09:36.727Z,1.60
2023-04-25T11:12:06.031Z,1.70
2023-04-25T11:14:35.757Z,2.10
2023-04-25T11:17:04.504Z,1.85
2023-04-25T11:19:33.166Z,2.05
2023-04-25T11:22:03.698Z,1.65
2023-04-25T11:24:33.184Z,1.83
2023-04-25T11:27:03.366Z,2.10
2023-04-25T11:29:32.859Z,1.55
2023-04-25T11:32:03.491Z,2.00
2023-04-25T11:34:32.660Z,1.77
2023-04-25T11:37:01.327Z,1.48
2023-04-25T11:39:30.134Z,1.48
2023-04-25T11:41:59.609Z,2.22
2023-04-25T11:44:30.829Z,1.80
2023-04-25T11:46:59.251Z,2.10
2023-04-25T11:49:32.736Z,2.53
2023-04-25T11:52:01.292Z,2.05
2023-04-25T11:54:29.480Z,1.90
2023-04-25T11:56:58.339Z,2.40
2023-04-25T11:59:27.841Z,2.17
2023-04-25T12:01:56.864Z,3.15
2023-04-25T12:04:26.390Z,3.55
2023-04-25T12:06:57.292Z,2.28
2023-04-25T12:09:31.389Z,2.25
2023-04-25T12:12:03.876Z,2.20
2023-04-25T12:14:33.626Z,2.38
2023-04-25T12:17:04.068Z,2.20
2023-04-25T12:19:35.599Z,2.00
2023-04-25T12:22:06.141Z,2.38
2023-04-25T12:24:39.061Z,2.15
2023-04-25T12:27:10.062Z,2.15
2023-04-25T12:29:49.190Z,1.90
2023-04-25T12:32:18.882Z,2.30
2023-04-25T12:34:47.183Z,2.50
2023-04-25T12:37:17.222Z,3.97
2023-04-25T12:39:45.519Z,2.85
2023-04-25T12:42:14.030Z,2.58
2023-04-25T12:44:42.614Z,2.38
2023-04-25T12:47:11.576Z,2.00
2023-04-25T12:49:39.784Z,2.50
2023-04-25T12:52:08.413Z,2.78
2023-04-25T12:54:37.993Z,2.55
2023-04-25T12:57:06.741Z,2.53
2023-04-25T12:59:34.923Z,2.85
2023-04-25T13:02:04.041Z,3.47
2023-04-25T13:04:32.552Z,3.17
2023-04-25T13:07:01.100Z,4.00
2023-04-25T13:09:29.332Z,3.60
2023-04-25T13:11:59.558Z,2.90
2023-04-25T13:14:27.879Z,2.95
2023-04-25T13:16:56.452Z,3.90
2023-04-25T13:19:24.855Z,3.17
2023-04-25T13:21:53.428Z,2.83
2023-04-25T13:24:21.736Z,3.15
2023-04-25T13:26:50.201Z,2.80
2023-04-25T13:29:19.797Z,3.08
2023-04-25T13:31:48.391Z,2.70
2023-04-25T13:34:17.079Z,2.20
2023-04-25T13:36:46.634Z,2.80
2023-04-25T13:39:15.373Z,2.88
2023-04-25T13:41:43.830Z,2.35
2023-04-25T13:44:13.663Z,2.75
2023-04-25T13:46:47.543Z,2.67
2023-04-25T13:49:16.617Z,2.65
2023-04-25T13:51:45.246Z,2.30
2023-04-25T13:54:13.537Z,2.30
2023-04-25T13:56:43.460Z,2.80
2023-04-25T13:59:12.487Z,2.78
2023-04-25T14:01:41.325Z,2.45
2023-04-25T14:04:11.257Z,2.83
2023-04-25T14:06:39.900Z,2.10
2023-04-25T14:09:11.263Z,3.20
2023-04-25T14:11:39.775Z,3.70
2023-04-25T14:14:07.958Z,4.45
2023-04-25T14:16:36.645Z,2.83
2023-04-25T14:19:04.990Z,2.53
2023-04-25T14:21:34.902Z,2.40
2023-04-25T14:24:03.137Z,2.60
2023-04-25T14:26:31.915Z,2.50
2023-04-25T14:29:00.187Z,2.47
2023-04-25T14:31:28.837Z,2.30
2023-04-25T14:33:59.421Z,2.20
2023-04-25T14:38:58.197Z,2.13
2023-04-25T14:41:27.106Z,2.55
2023-04-25T14:43:55.676Z,2.67
2023-04-25T14:46:24.422Z,1.90
2023-04-25T14:48:53.625Z,2.22
2023-04-25T14:51:22.209Z,2.13
2023-04-25T14:53:51.694Z,2.13
2023-04-25T14:56:22.025Z,2.08
2023-04-25T14:58:50.210Z,2.42
2023-04-25T15:01:19.068Z,2.25
2023-04-25T15:03:47.600Z,2.40
2023-04-25T15:06:16.364Z,2.70
2023-04-25T15:08:44.564Z,2.67
2023-04-25T15:11:13.260Z,6.43
2023-04-25T15:13:42.793Z,3.58
2023-04-25T15:16:12.357Z,4.43
2023-04-25T15:18:40.724Z,2.95
2023-04-25T15:21:09.271Z,2.97
2023-04-25T15:23:37.627Z,2.92
2023-04-25T15:26:06.330Z,2.45
2023-04-25T15:28:35.298Z,2.85
2023-04-25T15:31:05.230Z,2.50
2023-04-25T15:33:33.485Z,2.72
2023-04-25T15:36:04.473Z,3.30
2023-04-25T15:38:32.935Z,2.53
2023-04-25T15:41:01.601Z,2.70
2023-04-25T15:43:29.987Z,2.72
2023-04-25T15:45:58.603Z,2.40
2023-04-25T15:48:28.419Z,2.50
2023-04-25T15:50:57.158Z,2.80
2023-04-25T15:53:25.462Z,2.60
2023-04-25T15:55:53.993Z,2.88
2023-04-25T15:58:22.440Z,2.55
2023-04-25T16:00:51.828Z,2.60
2023-04-25T16:03:20.467Z,2.80
2023-04-25T16:05:50.536Z,2.65
2023-04-25T16:08:18.772Z,2.40
2023-04-25T16:10:47.320Z,2.78
2023-04-25T16:13:15.889Z,3.05
2023-04-25T16:15:44.596Z,3.05
2023-04-25T16:18:12.985Z,2.90
2023-04-25T16:20:42.207Z,2.58
2023-04-25T16:23:11.905Z,2.00
2023-04-25T16:25:41.110Z,2.83
2023-04-25T16:28:09.583Z,2.50
2023-04-25T16:30:38.215Z,3.33
2023-04-25T16:33:06.556Z,2.25
2023-04-25T16:35:35.130Z,1.80
2023-04-25T16:38:03.330Z,1.65
2023-04-25T16:40:33.340Z,1.80
2023-04-25T16:43:02.108Z,2.33
2023-04-25T16:45:31.126Z,1.52
2023-04-25T16:47:59.539Z,1.73
2023-04-25T16:50:28.401Z,1.85
2023-04-25T16:52:57.085Z,1.70
2023-04-25T16:55:26.608Z,1.60
2023-04-25T16:57:56.487Z,1.77
2023-04-25T17:00:25.348Z,1.70
2023-04-25T17:02:53.732Z,1.95
2023-04-25T17:05:22.865Z,1.77
2023-04-25T17:07:52.313Z,1.90
2023-04-25T17:10:21.333Z,1.90
2023-04-25T17:12:49.851Z,2.20
2023-04-25T17:15:20.761Z,1.73
2023-04-25T17:17:49.851Z,1.70
2023-04-25T17:20:18.681Z,1.80
2023-04-25T17:22:47.648Z,2.13
2023-04-25T17:25:17.974Z,2.10
2023-04-25T17:27:46.325Z,1.90
2023-04-25T17:30:15.210Z,2.10
2023-04-25T17:32:44.903Z,2.00
2023-04-25T17:35:13.947Z,1.77
2023-04-25T17:37:42.264Z,1.98
2023-04-25T17:40:12.327Z,2.10
2023-04-25T17:42:44.817Z,1.80
2023-04-25T17:45:14.012Z,1.92
2023-04-25T17:47:42.710Z,2.20
2023-04-25T17:50:16.767Z,2.60
2023-04-25T17:52:48.377Z,2.50
2023-04-25T17:55:17.590Z,2.88
2023-04-25T17:57:46.289Z,2.55
2023-04-25T18:00:18.347Z,2.22
2023-04-25T18:02:48.626Z,6.78
2023-04-25T18:05:19.329Z,11.95
2023-04-25T18:07:47.971Z,8.65
2023-04-25T18:10:17.732Z,5.05
2023-04-25T18:12:45.949Z,2.90
2023-04-25T18:15:15.054Z,2.90
2023-04-25T18:17:43.361Z,3.00
2023-04-25T18:20:15.924Z,3.80
2023-04-25T18:22:46.975Z,3.13
2023-04-25T18:25:17.109Z,2.70
2023-04-25T18:27:46.174Z,2.88
2023-04-25T18:30:15.221Z,3.63
2023-04-25T18:32:44.093Z,2.72
2023-04-25T18:35:13.979Z,3.38
2023-04-25T18:37:42.645Z,3.08
2023-04-25T18:40:16.161Z,3.50
2023-04-25T18:42:44.889Z,3.20
2023-04-25T18:45:13.962Z,3.30
2023-04-25T18:47:42.850Z,4.25
2023-04-25T18:50:12.934Z,4.10
2023-04-25T18:52:41.885Z,4.05
2023-04-25T18:55:12.862Z,4.30
2023-04-25T18:57:41.193Z,5.78
2023-04-25T19:00:11.373Z,4.55
2023-04-25T19:02:39.853Z,5.60
2023-04-25T19:05:10.162Z,4.20
2023-04-25T19:07:38.641Z,4.13
2023-04-25T19:10:09.292Z,5.10
2023-04-25T19:12:39.205Z,5.68
2023-04-25T19:15:09.978Z,5.72
2023-04-25T19:17:38.268Z,6.03
2023-04-25T19:20:08.340Z,6.80
2023-04-25T19:22:36.879Z,7.40
2023-04-25T19:25:10.720Z,8.05
2023-04-25T19:27:40.728Z,8.00
2023-04-25T19:30:11.728Z,7.05
2023-04-25T19:32:40.476Z,6.82
2023-04-25T19:35:11.758Z,7.22
2023-04-25T19:37:46.179Z,7.70
2023-04-25T19:40:16.217Z,9.65
2023-04-25T19:42:46.602Z,8.23
2023-04-25T19:45:15.127Z,8.10
2023-04-25T19:47:43.895Z,8.25
2023-04-25T19:50:13.062Z,7.25
2023-04-25T19:52:41.634Z,8.02
2023-04-25T19:55:11.127Z,7.47
2023-04-25T19:57:39.551Z,7.78
2023-04-25T20:00:12.937Z,8.30
2023-04-25T20:02:41.579Z,10.45
2023-04-25T20:05:10.664Z,9.40
2023-04-25T20:07:39.161Z,10.85
2023-04-25T20:10:09.069Z,9.77
2023-04-25T20:12:40.381Z,8.68
2023-04-25T20:15:11.973Z,8.30
2023-04-25T20:17:40.393Z,6.53
2023-04-25T20:20:10.892Z,4.97
2023-04-25T20:22:40.729Z,4.97
2023-04-25T20:25:11.090Z,4.95
2023-04-25T20:27:39.542Z,4.75
2023-04-25T20:30:12.189Z,3.97
2023-04-25T20:32:40.986Z,4.60
2023-04-25T20:35:10.689Z,5.32
2023-04-25T20:37:38.825Z,4.88
2023-04-25T20:40:09.857Z,3.65
2023-04-25T20:42:38.309Z,3.95
2023-04-25T20:45:12.760Z,6.90
2023-04-25T20:47:43.077Z,4.57
2023-04-25T20:50:12.454Z,4.35
2023-04-25T20:52:41.820Z,7.22
2023-04-25T20:55:11.865Z,4.55
2023-04-25T20:57:40.147Z,5.18
2023-04-25T21:00:16.913Z,4.72
2023-04-25T21:02:47.218Z,5.00
2023-04-25T21:05:16.144Z,5.43
2023-04-25T21:07:45.650Z,4.13
2023-04-25T21:10:15.687Z,5.28
2023-04-25T21:12:47.963Z,5.10
2023-04-25T21:15:18.263Z,4.82
2023-04-25T21:17:48.360Z,4.32
2023-04-25T21:20:18.024Z,3.60
2023-04-25T21:22:50.437Z,4.03
2023-04-25T21:25:24.005Z,3.88
2023-04-25T21:27:53.071Z,3.90
2023-04-25T21:30:23.782Z,3.97
2023-04-25T21:32:54.424Z,3.75
2023-04-25T21:35:23.360Z,3.40
2023-04-25T21:37:52.227Z,3.80
2023-04-25T21:40:20.996Z,3.90
2023-04-25T21:42:51.754Z,4.63
2023-04-25T21:45:20.996Z,2.85
2023-04-25T21:47:49.388Z,3.50
2023-04-25T21:50:19.930Z,3.70
2023-04-25T21:52:48.451Z,3.85
2023-04-25T21:55:17.735Z,4.20
2023-04-25T21:57:46.440Z,4.00
2023-04-25T22:00:25.542Z,4.28
2023-04-25T22:02:55.436Z,4.18
2023-04-25T22:05:27.077Z,5.55
2023-04-25T22:07:57.104Z,4.18
2023-04-25T22:10:26.256Z,3.90
2023-04-25T22:12:54.428Z,4.05
2023-04-25T22:15:24.091Z,4.85
2023-04-25T22:17:54.090Z,4.78
2023-04-25T22:20:26.530Z,4.68
2023-04-25T22:22:56.736Z,4.63
2023-04-25T22:25:25.535Z,4.57
2023-04-25T22:27:55.440Z,4.53
2023-04-25T22:30:24.156Z,4.15
2023-04-25T22:32:52.393Z,4.20
2023-04-25T22:35:20.931Z,4.47
2023-04-25T22:37:49.224Z,5.00
2023-04-25T22:40:19.459Z,4.03
2023-04-25T22:42:47.720Z,5.13
2023-04-25T22:45:16.237Z,5.28
2023-04-25T22:47:44.552Z,4.50
2023-04-25T22:50:16.675Z,4.75
2023-04-25T22:52:45.343Z,4.18
2023-04-25T22:55:13.802Z,3.63
2023-04-25T22:57:43.343Z,3.75
2023-04-25T23:00:16.549Z,3.80
2023-04-25T23:02:46.745Z,3.92
2023-04-25T23:05:16.089Z,3.72
2023-04-25T23:07:45.123Z,3.63
2023-04-25T23:10:14.232Z,3.85
2023-04-25T23:12:44.104Z,3.70
2023-04-25T23:15:13.704Z,4.60
2023-04-25T23:17:42.343Z,3.78
2023-04-25T23:20:12.240Z,3.95
2023-04-25T23:22:40.751Z,3.90
2023-04-25T23:25:10.527Z,3.75
2023-04-25T23:27:38.698Z,4.00
2023-04-25T23:30:10.203Z,4.30
2023-04-25T23:32:38.749Z,4.55
2023-04-25T23:35:08.261Z,5.15
2023-04-25T23:37:37.295Z,4.70
2023-04-25T23:40:10.033Z,4.95
2023-04-25T23:42:38.659Z,5.72
2023-04-25T23:45:10.097Z,5.18
2023-04-25T23:47:38.836Z,4.63
2023-04-25T23:50:08.781Z,4.07
2023-04-25T23:52:37.981Z,4.18
2023-04-25T23:55:07.250Z,3.72
2023-04-25T23:57:35.454Z,4.10
